Time;durP1;ratioP1;P1;durP2;ratioP2;P2;SDS_P1;SDS_P2;PMS_P1;PMS_P2;Temp;Humidity;BMP_temperature;BMP_pressure;BME280_temperature;BME280_humidity;BME280_pressure;Samples;Min_cycle;Max_cycle;Signal;HPM_P1;HPM_P2
2022/07/22 00:02:21;;;;;;;7.57;5.05;;;;;;;20.42;64.16;100215.28;5091670;28;20051;-68
2022/07/22 00:04:48;;;;;;;5.18;4.78;;;;;;;20.37;64.25;100212.19;5092629;28;20512;-69
2022/07/22 00:07:15;;;;;;;4.68;4.20;;;;;;;20.35;64.48;100216.84;5092846;28;20106;-68
2022/07/22 00:09:42;;;;;;;4.07;3.78;;;;;;;20.32;64.35;100219.81;5089888;28;20051;-70
2022/07/22 00:12:09;;;;;;;4.47;3.90;;;;;;;20.30;64.34;100221.78;5092868;28;20047;-69
2022/07/22 00:14:35;;;;;;;5.20;3.92;;;;;;;20.28;64.75;100224.59;5092738;28;20104;-69
2022/07/22 00:17:02;;;;;;;4.93;3.90;;;;;;;20.27;64.43;100220.25;5092457;28;20105;-70
2022/07/22 00:19:29;;;;;;;5.07;4.53;;;;;;;20.28;64.67;100229.09;5092511;28;20549;-69
2022/07/22 00:21:55;;;;;;;8.30;4.80;;;;;;;20.28;64.33;100231.75;5092415;28;20059;-67
2022/07/22 00:24:22;;;;;;;6.45;4.47;;;;;;;20.28;64.60;100229.09;5092716;28;20064;-68
2022/07/22 00:26:48;;;;;;;5.53;4.40;;;;;;;20.28;64.29;100231.75;5092769;28;20064;-69
2022/07/22 00:29:15;;;;;;;5.88;5.28;;;;;;;20.29;64.44;100230.78;5091857;28;20044;-69
2022/07/22 00:31:41;;;;;;;5.65;5.15;;;;;;;20.28;64.47;100235.28;5092461;28;20048;-69
2022/07/22 00:34:08;;;;;;;7.03;6.15;;;;;;;20.28;64.29;100234.44;5092205;28;20797;-68
2022/07/22 00:36:35;;;;;;;7.50;5.70;;;;;;;20.26;64.42;100236.41;5092076;28;20055;-68
2022/07/22 00:39:02;;;;;;;6.93;5.05;;;;;;;20.25;64.20;100234.69;5090842;28;20052;-69
2022/07/22 00:41:29;;;;;;;11.38;5.53;;;;;;;20.25;64.46;100240.06;5091018;28;20067;-69
2022/07/22 00:44:07;;;;;;;5.93;5.30;;;;;;;20.19;64.57;100238.81;5091989;28;20142;-69
2022/07/22 00:46:36;;;;;;;5.90;5.32;;;;;;;20.21;64.05;100234.16;5090852;28;20052;-69
2022/07/22 00:49:05;;;;;;;5.80;3.92;;;;;;;20.21;64.18;100233.28;5090176;28;20138;-70
2022/07/22 00:51:32;;;;;;;5.53;4.20;;;;;;;20.20;64.51;100231.59;5092147;28;20048;-70
2022/07/22 00:54:00;;;;;;;8.68;3.08;;;;;;;20.17;64.48;100228.25;5091976;28;20059;-70
2022/07/22 00:56:28;;;;;;;7.28;3.72;;;;;;;20.16;64.50;100239.06;5090745;28;20657;-70
2022/07/22 00:58:58;;;;;;;7.57;4.20;;;;;;;20.14;64.44;100236.53;5090410;28;20052;-70
2022/07/22 01:01:25;;;;;;;5.80;5.00;;;;;;;20.13;64.38;100237.53;5091820;28;20052;-71
2022/07/22 01:03:52;;;;;;;7.75;5.78;;;;;;;20.12;64.25;100243.84;5091932;28;20492;-70
2022/07/22 01:06:27;;;;;;;7.05;6.07;;;;;;;20.11;64.20;100239.47;5092050;28;20060;-70
2022/07/22 01:08:55;;;;;;;8.10;5.80;;;;;;;20.10;64.61;100236.94;5091497;28;20401;-70
2022/07/22 01:11:23;;;;;;;7.95;5.32;;;;;;;20.09;64.42;100240.59;5090347;28;20099;-70
2022/07/22 01:13:51;;;;;;;5.10;4.55;;;;;;;20.06;64.19;100241.72;5091473;28;20055;-70
2022/07/22 01:16:18;;;;;;;7.07;4.22;;;;;;;20.04;64.05;100241.03;5092110;28;20052;-70
2022/07/22 01:18:45;;;;;;;3.63;3.30;;;;;;;20.01;64.44;100241.28;5091262;28;20087;-71
2022/07/22 01:21:13;;;;;;;4.82;3.67;;;;;;;19.99;64.25;100241.44;5091084;28;20048;-70
2022/07/22 01:23:40;;;;;;;4.38;2.90;;;;;;;19.97;64.43;100240.69;5091445;28;20054;-70
2022/07/22 01:26:07;;;;;;;7.88;3.78;;;;;;;19.94;64.41;100254.31;5091334;28;20059;-69
2022/07/22 01:28:34;;;;;;;6.30;4.07;;;;;;;19.92;64.44;100249.13;5090824;28;20063;-71
2022/07/22 01:31:00;;;;;;;5.55;4.35;;;;;;;19.90;64.49;100243.06;5089959;28;20056;-69
2022/07/22 01:33:27;;;;;;;7.40;4.40;;;;;;;19.88;64.23;100234.34;5091050;28;20048;-70
2022/07/22 01:35:54;;;;;;;9.38;5.18;;;;;;;19.86;64.27;100238.97;5091225;28;20048;-70
2022/07/22 01:38:24;;;;;;;6.88;5.45;;;;;;;19.83;64.95;100249.94;5090911;28;20441;-69
2022/07/22 01:40:51;;;;;;;7.28;4.93;;;;;;;19.83;64.58;100244.59;5091117;28;20051;-70
2022/07/22 01:43:20;;;;;;;7.25;4.60;;;;;;;19.82;64.84;100240.22;5090953;28;20116;-70
2022/07/22 01:45:51;;;;;;;8.50;5.53;;;;;;;19.83;64.65;100249.94;5090996;28;20492;-71
2022/07/22 01:48:18;;;;;;;9.10;5.35;;;;;;;19.83;64.74;100246.41;5089529;28;20044;-69
2022/07/22 01:50:45;;;;;;;5.38;4.00;;;;;;;19.82;64.89;100253.59;5091030;28;20404;-69
2022/07/22 01:53:12;;;;;;;3.38;2.80;;;;;;;19.83;64.88;100249.94;5089528;28;20052;-70
2022/07/22 01:55:41;;;;;;;4.05;2.63;;;;;;;19.83;64.53;100254.41;5090828;28;20054;-69
2022/07/22 01:58:08;;;;;;;7.50;2.63;;;;;;;19.83;64.42;100252.59;5090651;28;20044;-68
2022/07/22 02:00:35;;;;;;;4.13;2.40;;;;;;;19.80;64.44;100252.88;5090813;28;20043;-71
2022/07/22 02:03:01;;;;;;;5.45;2.60;;;;;;;19.78;64.59;100249.50;5090693;28;20052;-70
2022/07/22 02:05:28;;;;;;;4.15;2.20;;;;;;;19.74;64.51;100253.41;5089528;28;20050;-69
2022/07/22 02:08:09;;;;;;;3.67;2.35;;;;;;;19.68;64.74;100252.13;5090733;28;20188;-69
2022/07/22 02:10:37;;;;;;;4.82;2.28;;;;;;;19.69;64.40;100256.47;5091016;28;20064;-70
2022/07/22 02:13:04;;;;;;;2.95;2.40;;;;;;;19.66;64.52;100249.59;5090775;28;20055;-70
2022/07/22 02:15:30;;;;;;;5.68;2.50;;;;;;;19.63;64.39;100252.53;5090628;28;20071;-69
2022/07/22 02:17:57;;;;;;;5.90;2.88;;;;;;;19.60;64.69;100258.16;5090425;28;20055;-70
2022/07/22 02:20:24;;;;;;;4.35;2.15;;;;;;;19.57;64.52;100247.72;5090317;28;20061;-69
2022/07/22 02:22:50;;;;;;;4.22;2.88;;;;;;;19.55;64.54;100249.66;5090479;28;20048;-69
2022/07/22 02:25:17;;;;;;;3.25;2.30;;;;;;;19.52;64.67;100249.97;5090607;28;20059;-70
2022/07/22 02:27:44;;;;;;;2.78;2.30;;;;;;;19.50;65.00;100250.09;5090339;28;20051;-70
2022/07/22 02:30:11;;;;;;;6.55;2.50;;;;;;;19.48;65.15;100248.53;5090357;28;20537;-70
2022/07/22 02:32:38;;;;;;;4.65;2.10;;;;;;;19.46;65.23;100243.31;5091655;28;20075;-70
2022/07/22 02:35:05;;;;;;;3.20;1.60;;;;;;;19.46;65.22;100246.00;5094472;28;20055;-70
2022/07/22 02:37:33;;;;;;;4.10;1.70;;;;;;;19.46;65.01;100250.47;5093150;28;20047;-69
2022/07/22 02:40:00;;;;;;;2.45;1.25;;;;;;;19.46;64.66;100251.34;5094361;28;20063;-71
2022/07/22 02:42:27;;;;;;;3.70;1.50;;;;;;;19.48;64.83;100248.53;5094598;28;20454;-69
2022/07/22 02:44:53;;;;;;;3.88;1.65;;;;;;;19.47;64.99;100252.19;5093207;28;20113;-71
2022/07/22 02:47:20;;;;;;;2.80;1.70;;;;;;;19.47;65.00;100252.19;5094327;28;20075;-69
2022/07/22 02:49:46;;;;;;;2.92;1.63;;;;;;;19.49;64.86;100251.09;5093888;28;20048;-68
2022/07/22 02:52:13;;;;;;;2.20;1.70;;;;;;;19.49;64.95;100247.56;5094477;28;20048;-68
2022/07/22 02:54:40;;;;;;;3.50;1.90;;;;;;;19.47;64.93;100246.84;5093049;28;20447;-71
2022/07/22 02:57:06;;;;;;;3.67;1.90;;;;;;;19.47;64.66;100247.69;5094184;28;20063;-69
2022/07/22 02:59:33;;;;;;;3.13;2.17;;;;;;;19.46;65.08;100246.00;5093951;28;20052;-69
2022/07/22 03:01:59;;;;;;;3.15;2.13;;;;;;;19.47;64.87;100242.34;5093986;28;20056;-69
2022/07/22 03:04:26;;;;;;;2.40;2.20;;;;;;;19.48;65.07;100248.53;5093813;28;20450;-70
2022/07/22 03:06:53;;;;;;;4.43;2.30;;;;;;;19.47;65.06;100247.69;5092933;28;20400;-70
2022/07/22 03:09:19;;;;;;;5.15;2.70;;;;;;;19.48;65.13;100243.19;5093689;28;20140;-69
2022/07/22 03:11:46;;;;;;;4.93;2.80;;;;;;;19.49;64.81;100252.91;5093886;28;20520;-71
2022/07/22 03:14:13;;;;;;;6.60;2.90;;;;;;;19.50;64.95;100258.09;5093838;28;20056;-70
2022/07/22 03:16:39;;;;;;;5.10;2.92;;;;;;;19.50;65.00;100260.78;5093773;28;20056;-69
2022/07/22 03:19:06;;;;;;;3.67;2.42;;;;;;;19.51;65.27;100259.78;5093442;28;20047;-69
2022/07/22 03:21:33;;;;;;;2.53;2.33;;;;;;;19.53;65.21;100259.66;5093936;28;20071;-69
2022/07/22 03:24:00;;;;;;;4.85;2.60;;;;;;;19.56;65.50;100272.75;5093700;28;20514;-69
2022/07/22 03:26:26;;;;;;;2.78;2.30;;;;;;;19.55;65.45;100265.69;5092465;28;20055;-70
2022/07/22 03:28:53;;;;;;;3.13;2.00;;;;;;;19.56;65.06;100269.22;5093453;28;20056;-69
2022/07/22 03:31:20;;;;;;;3.72;2.03;;;;;;;19.55;65.12;100270.22;5093331;28;20070;-70
2022/07/22 03:33:47;;;;;;;5.68;2.03;;;;;;;19.52;64.62;100272.16;5093466;28;20446;-71
2022/07/22 03:36:13;;;;;;;5.43;2.35;;;;;;;19.50;64.45;100267.94;5093461;28;20407;-70
2022/07/22 03:38:40;;;;;;;4.60;2.20;;;;;;;19.46;64.17;100267.34;5093343;28;20052;-70
2022/07/22 03:41:06;;;;;;;6.93;2.95;;;;;;;19.42;64.07;100268.59;5093366;28;20476;-71
2022/07/22 03:43:33;;;;;;;8.40;2.97;;;;;;;19.39;64.04;100261.72;5093190;28;20044;-70
2022/07/22 03:46:00;;;;;;;6.68;3.05;;;;;;;19.35;64.03;100270.97;5091951;28;20052;-69
2022/07/22 03:48:26;;;;;;;7.38;2.80;;;;;;;19.33;64.08;100272.91;5092838;28;20056;-69
2022/07/22 03:50:53;;;;;;;8.55;3.25;;;;;;;19.30;64.55;100272.31;5093146;28;20059;-70
2022/07/22 03:53:20;;;;;;;6.40;2.92;;;;;;;19.28;64.30;100277.78;5091785;28;20044;-70
2022/07/22 03:55:47;;;;;;;12.50;3.10;;;;;;;19.26;64.12;100282.44;5093045;28;20077;-71
2022/07/22 03:58:16;;;;;;;7.43;2.88;;;;;;;19.24;64.21;100284.38;5091587;28;20051;-70
2022/07/22 04:00:43;;;;;;;7.57;2.80;;;;;;;19.23;64.23;100278.19;5091428;28;20072;-69
2022/07/22 04:03:09;;;;;;;7.07;2.83;;;;;;;19.23;64.31;100274.66;5092868;28;20054;-69
2022/07/22 04:05:36;;;;;;;7.63;2.75;;;;;;;19.22;64.21;100273.81;5092947;28;20044;-69
2022/07/22 04:08:03;;;;;;;9.13;3.20;;;;;;;19.24;64.18;100281.69;5092994;28;20048;-69
2022/07/22 04:10:29;;;;;;;9.48;2.95;;;;;;;19.22;63.93;100278.31;5092662;28;20051;-71
2022/07/22 04:12:56;;;;;;;4.80;2.92;;;;;;;19.21;64.44;100280.13;5092730;28;20051;-69
2022/07/22 04:15:22;;;;;;;8.05;3.22;;;;;;;19.20;64.38;100278.44;5092549;28;20488;-69
2022/07/22 04:17:51;;;;;;;6.75;2.60;;;;;;;19.18;64.37;100274.22;5092877;28;20052;-69
2022/07/22 04:20:17;;;;;;;10.13;3.53;;;;;;;19.18;64.48;100279.56;5092445;28;20052;-70
2022/07/22 04:22:44;;;;;;;9.57;3.47;;;;;;;19.17;64.21;100277.88;5092626;28;20048;-70
2022/07/22 04:25:10;;;;;;;5.47;3.42;;;;;;;19.16;64.36;100284.16;5092294;28;20064;-70
2022/07/22 04:27:37;;;;;;;6.40;3.70;;;;;;;19.17;64.66;100285.88;5091191;28;20040;-69
2022/07/22 04:30:04;;;;;;;7.80;3.72;;;;;;;19.16;64.60;100286.84;5090763;28;20121;-69
2022/07/22 04:32:31;;;;;;;13.10;3.85;;;;;;;19.16;64.36;100286.84;5091381;28;20055;-70
2022/07/22 04:34:57;;;;;;;8.02;4.40;;;;;;;19.17;64.93;100293.88;5092336;28;20112;-69
2022/07/22 04:37:24;;;;;;;9.07;5.05;;;;;;;19.16;64.74;100287.69;5092104;28;20442;-69
2022/07/22 04:39:51;;;;;;;8.27;4.45;;;;;;;19.18;64.94;100287.56;5092346;28;20052;-70
2022/07/22 04:42:18;;;;;;;9.65;4.10;;;;;;;19.17;65.00;100289.38;5092342;28;20402;-70
2022/07/22 04:44:44;;;;;;;7.15;4.20;;;;;;;19.21;64.93;100290.00;5092307;28;20431;-69
2022/07/22 04:47:11;;;;;;;9.52;3.97;;;;;;;19.21;64.82;100285.47;5092078;28;20456;-70
2022/07/22 04:49:38;;;;;;;7.15;3.63;;;;;;;19.22;64.50;100286.34;5091860;28;20121;-71
2022/07/22 04:52:05;;;;;;;8.73;3.33;;;;;;;19.22;64.72;100283.66;5090816;28;20059;-69
2022/07/22 04:54:35;;;;;;;8.68;3.85;;;;;;;19.22;64.93;100283.66;5091758;28;20047;-70
2022/07/22 04:57:02;;;;;;;8.07;3.10;;;;;;;19.23;64.79;100277.34;5091191;28;20062;-69
2022/07/22 04:59:28;;;;;;;9.70;3.00;;;;;;;19.23;64.68;100272.88;5091673;28;20047;-71
2022/07/22 05:01:55;;;;;;;9.65;3.42;;;;;;;19.25;64.67;100278.06;5091996;28;20480;-70
2022/07/22 05:04:22;;;;;;;7.20;3.28;;;;;;;19.27;64.62;100281.44;5090565;28;20407;-70
2022/07/22 05:06:48;;;;;;;5.40;2.53;;;;;;;19.27;64.69;100282.31;5090461;28;20086;-71
2022/07/22 05:09:15;;;;;;;7.13;2.65;;;;;;;19.29;64.85;100282.16;5090085;28;20051;-70
2022/07/22 05:11:41;;;;;;;5.68;2.83;;;;;;;19.30;64.88;100283.84;5091447;28;20501;-69
2022/07/22 05:14:08;;;;;;;8.82;2.65;;;;;;;19.32;64.59;100287.22;5091710;28;20063;-70
2022/07/22 05:16:37;;;;;;;5.95;2.70;;;;;;;19.34;64.74;100285.28;5091485;28;20067;-72
2022/07/22 05:19:05;;;;;;;7.78;3.30;;;;;;;19.37;64.74;100278.84;5091309;28;20064;-70
2022/07/22 05:21:32;;;;;;;5.82;2.97;;;;;;;19.38;64.81;100284.03;5090067;28;20481;-70
2022/07/22 05:23:58;;;;;;;6.78;3.08;;;;;;;19.40;64.77;100284.75;5091335;28;20454;-71
2022/07/22 05:26:28;;;;;;;7.70;2.85;;;;;;;19.42;64.86;100289.09;5091192;28;20048;-70
2022/07/22 05:28:55;;;;;;;7.18;2.92;;;;;;;19.43;64.81;100288.16;5091143;28;20040;-71
2022/07/22 05:31:22;;;;;;;7.05;2.60;;;;;;;19.45;64.70;100287.03;5091281;28;20051;-69
2022/07/22 05:33:49;;;;;;;5.15;2.85;;;;;;;19.47;64.80;100286.91;5090702;28;20051;-69
2022/07/22 05:36:15;;;;;;;8.77;3.13;;;;;;;19.48;64.74;100286.75;5091060;28;20048;-70
2022/07/22 05:38:42;;;;;;;6.28;2.97;;;;;;;19.50;64.79;100290.13;5089620;28;20052;-69
2022/07/22 05:41:08;;;;;;;8.25;2.47;;;;;;;19.53;64.72;100295.22;5089931;28;20048;-69
2022/07/22 05:43:35;;;;;;;6.57;2.63;;;;;;;19.57;64.55;100289.59;5089706;28;20454;-70
2022/07/22 05:46:02;;;;;;;7.43;2.70;;;;;;;19.59;64.71;100293.81;5091165;28;20056;-70
2022/07/22 05:48:29;;;;;;;5.72;2.80;;;;;;;19.63;64.45;100299.75;5090475;28;20048;-69
2022/07/22 05:50:55;;;;;;;8.23;2.90;;;;;;;19.63;64.34;100297.91;5089443;28;20059;-69
2022/07/22 05:53:22;;;;;;;6.55;2.60;;;;;;;19.65;64.44;100304.00;5090544;28;20063;-69
2022/07/22 05:55:48;;;;;;;6.05;2.75;;;;;;;19.67;64.40;100299.34;5090645;28;20051;-69
2022/07/22 05:58:15;;;;;;;7.97;2.78;;;;;;;19.70;64.52;100300.06;5090108;28;20040;-69
2022/07/22 06:00:42;;;;;;;10.05;3.00;;;;;;;19.73;64.21;100308.66;5090415;28;20106;-70
2022/07/22 06:03:08;;;;;;;6.10;2.50;;;;;;;19.75;64.48;100314.72;5090472;28;20082;-68
2022/07/22 06:05:43;;;;;;;9.63;2.67;;;;;;;19.79;64.18;100313.47;5089384;28;20409;-69
2022/07/22 06:08:09;;;;;;;5.82;2.75;;;;;;;19.83;64.36;100311.38;5090566;28;20439;-69
2022/07/22 06:10:36;;;;;;;5.55;3.08;;;;;;;19.85;64.01;100320.09;5090472;28;20052;-70
2022/07/22 06:13:02;;;;;;;4.97;2.53;;;;;;;19.86;63.98;100316.47;5090572;28;20048;-69
2022/07/22 06:15:29;;;;;;;6.03;2.50;;;;;;;19.87;63.84;100318.13;5090778;28;20048;-70
2022/07/22 06:17:56;;;;;;;3.85;1.98;;;;;;;19.87;63.91;100320.81;5089178;28;20080;-71
2022/07/22 06:20:22;;;;;;;6.82;2.80;;;;;;;19.90;63.93;100319.69;5090804;28;20044;-70
2022/07/22 06:22:49;;;;;;;7.68;2.20;;;;;;;19.91;63.88;100316.88;5089470;28;20105;-69
2022/07/22 06:25:15;;;;;;;5.57;2.20;;;;;;;19.93;64.39;100314.91;5090545;28;20097;-70
2022/07/22 06:28:02;;;;;;;5.63;2.67;;;;;;;19.97;63.94;100311.97;5090683;28;20048;-70
2022/07/22 06:30:29;;;;;;;5.55;2.15;;;;;;;20.01;63.81;100311.63;5090185;28;20048;-69
2022/07/22 06:32:56;;;;;;;8.15;2.50;;;;;;;20.04;63.45;100316.66;5089084;28;20052;-69
2022/07/22 06:35:24;;;;;;;4.15;2.40;;;;;;;20.06;63.36;100313.88;5090378;28;20060;-72
2022/07/22 06:37:52;;;;;;;6.80;2.10;;;;;;;20.11;63.25;100316.16;5090312;28;20062;-69
2022/07/22 06:40:36;;;;;;;5.53;2.42;;;;;;;20.12;63.18;100324.03;5090492;28;20416;-69
2022/07/22 06:43:03;;;;;;;6.03;2.10;;;;;;;20.16;63.33;100328.13;5088840;28;20048;-69
2022/07/22 06:45:31;;;;;;;7.05;2.55;;;;;;;20.21;63.26;100324.16;5090557;28;20385;-70
2022/07/22 06:47:58;;;;;;;5.88;2.42;;;;;;;20.24;63.19;100326.56;5090497;28;20079;-69
2022/07/22 06:50:25;;;;;;;6.50;2.47;;;;;;;20.28;62.59;100314.63;5090254;28;20487;-70
2022/07/22 06:52:52;;;;;;;3.95;1.90;;;;;;;20.32;62.69;100316.03;5090389;28;20433;-71
2022/07/22 06:55:19;;;;;;;4.35;1.70;;;;;;;20.37;62.83;100318.31;5089920;28;20204;-70
2022/07/22 06:57:45;;;;;;;7.38;2.28;;;;;;;20.41;62.34;100317.88;5090234;28;20048;-69
2022/07/22 07:00:12;;;;;;;6.75;1.98;;;;;;;20.46;62.24;100319.31;5089995;28;20458;-70
2022/07/22 07:02:39;;;;;;;4.20;1.67;;;;;;;20.48;61.72;100315.50;5090291;28;20055;-70
2022/07/22 07:05:06;;;;;;;5.38;2.08;;;;;;;20.51;61.64;100317.06;5090082;28;20511;-70
2022/07/22 07:07:45;;;;;;;7.78;2.17;;;;;;;20.53;61.58;100310.59;5090281;28;20066;-71
2022/07/22 07:10:15;;;;;;;4.38;1.70;;;;;;;20.56;61.42;100312.97;5089531;28;20052;-70
2022/07/22 07:12:42;;;;;;;8.88;2.20;;;;;;;20.60;61.38;100316.25;5090091;28;20059;-71
2022/07/22 07:15:09;;;;;;;5.10;1.83;;;;;;;20.63;61.08;100313.28;5088537;28;20094;-71
2022/07/22 07:17:56;;;;;;;6.30;1.92;;;;;;;20.67;61.15;100313.84;5088567;28;20059;-71
2022/07/22 07:20:24;;;;;;;6.28;1.92;;;;;;;20.69;60.57;100302.03;5091863;28;20058;-70
2022/07/22 07:22:51;;;;;;;6.43;2.28;;;;;;;20.75;60.73;100307.78;5091925;28;20058;-69
2022/07/22 07:25:18;;;;;;;3.80;1.50;;;;;;;20.78;60.80;100302.19;5093501;28;20048;-71
2022/07/22 07:27:50;;;;;;;5.72;1.75;;;;;;;20.80;60.67;100301.03;5092023;28;20101;-70
2022/07/22 07:30:20;;;;;;;5.40;1.80;;;;;;;20.86;60.20;100304.13;5090378;28;20137;-70
2022/07/22 07:32:47;;;;;;;4.68;1.85;;;;;;;20.89;60.59;100311.91;5090644;28;20040;-70
2022/07/22 07:35:14;;;;;;;4.13;2.00;;;;;;;20.92;60.10;100301.78;5091754;28;20040;-70
2022/07/22 07:37:40;;;;;;;4.00;1.92;;;;;;;20.96;59.79;100307.66;5092489;28;20052;-71
2022/07/22 07:40:07;;;;;;;7.90;1.92;;;;;;;21.00;59.79;100305.56;5092693;28;20052;-71
2022/07/22 07:42:34;;;;;;;7.85;1.90;;;;;;;21.03;60.28;100308.81;5092603;28;20054;-71
2022/07/22 07:45:05;;;;;;;3.03;1.45;;;;;;;21.07;60.33;100301.31;5092043;28;20056;-71
2022/07/22 07:47:32;;;;;;;5.47;1.67;;;;;;;21.13;60.03;100308.78;5093355;28;20126;-70
2022/07/22 07:50:00;;;;;;;5.35;1.92;;;;;;;21.17;59.46;100304.84;5092806;28;20491;-71
2022/07/22 07:52:26;;;;;;;5.38;1.67;;;;;;;21.24;59.43;100304.25;5093520;28;20059;-70
2022/07/22 07:54:55;;;;;;;4.47;1.73;;;;;;;21.27;59.06;100303.97;5093148;28;20055;-70
2022/07/22 07:57:39;;;;;;;4.90;1.90;;;;;;;21.31;58.68;100300.03;5093268;28;20052;-71
2022/07/22 08:00:08;;;;;;;3.55;1.50;;;;;;;21.31;58.43;100310.72;5092794;28;20488;-70
2022/07/22 08:02:38;;;;;;;3.97;1.50;;;;;;;21.33;58.29;100309.59;5093058;28;20052;-70
2022/07/22 08:05:07;;;;;;;6.00;1.65;;;;;;;21.35;57.99;100306.78;5093073;28;20078;-70
2022/07/22 08:07:36;;;;;;;3.85;1.48;;;;;;;21.35;57.80;100306.78;5092898;28;20044;-71
2022/07/22 08:10:05;;;;;;;4.68;1.70;;;;;;;21.36;58.33;100305.78;5092560;28;20078;-71
2022/07/22 08:12:51;;;;;;;2.95;1.35;;;;;;;21.38;58.01;100303.78;5091451;28;20067;-72
2022/07/22 08:15:18;;;;;;;6.38;1.50;;;;;;;21.38;57.56;100303.78;5093036;28;20129;-71
2022/07/22 08:17:45;;;;;;;4.35;1.35;;;;;;;21.37;57.17;100303.97;5092749;28;20415;-71
2022/07/22 08:20:12;;;;;;;6.25;1.70;;;;;;;21.36;57.41;100303.09;5092546;28;20071;-70
2022/07/22 08:22:46;;;;;;;4.28;1.77;;;;;;;21.36;57.13;100308.47;5092441;28;20062;-71
2022/07/22 08:25:13;;;;;;;3.20;1.58;;;;;;;21.34;57.13;100303.25;5092439;28;20087;-72
2022/07/22 08:27:40;;;;;;;5.53;2.00;;;;;;;21.33;56.97;100312.28;5091368;28;20489;-71
2022/07/22 08:30:07;;;;;;;6.82;1.45;;;;;;;21.32;56.70;100304.38;5091054;28;20321;-70
2022/07/22 08:32:34;;;;;;;4.10;1.48;;;;;;;21.30;56.99;100309.06;5092322;28;20143;-71
2022/07/22 08:35:03;;;;;;;4.03;1.25;;;;;;;21.28;56.99;100316.38;5092376;28;20275;-72
2022/07/22 08:37:40;;;;;;;4.60;1.52;;;;;;;21.25;56.63;100313.97;5093058;28;20464;-70
2022/07/22 08:40:22;;;;;;;5.85;1.40;;;;;;;21.21;56.75;100319.63;5092626;28;20048;-70
2022/07/22 08:43:02;;;;;;;4.03;1.48;;;;;;;21.22;56.04;100315.97;5093238;28;20044;-71
2022/07/22 08:45:50;;;;;;;3.90;1.50;;;;;;;21.20;56.18;100306.38;5093042;28;20468;-71
2022/07/22 08:50:47;;;;;;;4.88;1.65;;;;;;;21.21;56.19;100310.75;4873807;23;20133;-70
2022/07/22 08:53:14;;;;;;;4.20;1.50;;;;;;;21.21;56.22;100321.44;4982880;28;20050;-71
2022/07/22 08:55:45;;;;;;;4.68;1.65;;;;;;;21.18;55.86;100309.19;4972018;28;20058;-71
2022/07/22 08:58:12;;;;;;;3.88;1.40;;;;;;;21.20;56.43;100309.06;4972984;28;20054;-71
2022/07/22 09:00:39;;;;;;;3.30;1.25;;;;;;;21.22;56.43;100315.09;4973225;28;20097;-69
2022/07/22 09:03:27;;;;;;;3.88;1.20;;;;;;;21.18;56.58;100316.38;4973405;28;20054;-71
2022/07/22 09:05:54;;;;;;;3.70;1.15;;;;;;;21.24;56.75;100321.19;4973342;28;20145;-71
2022/07/22 09:08:21;;;;;;;5.00;1.45;;;;;;;21.25;55.94;100330.03;4973014;28;20050;-71
2022/07/22 09:10:48;;;;;;;2.33;1.40;;;;;;;21.26;55.76;100323.72;4973094;28;20047;-70
2022/07/22 09:13:16;;;;;;;5.47;1.60;;;;;;;21.25;56.13;100322.00;4972960;28;20118;-70
2022/07/22 09:15:54;;;;;;;4.07;1.60;;;;;;;21.24;55.73;100323.00;4973325;28;20054;-71
2022/07/22 09:18:21;;;;;;;3.03;1.30;;;;;;;21.26;55.88;100327.22;4971658;28;20059;-70
2022/07/22 09:20:47;;;;;;;4.80;1.58;;;;;;;21.27;55.55;100328.06;4973169;28;20058;-71
2022/07/22 09:23:24;;;;;;;6.50;1.77;;;;;;;21.26;55.27;100327.22;4972710;28;20058;-72
2022/07/22 09:25:50;;;;;;;5.53;1.70;;;;;;;21.26;55.47;100321.88;4972838;28;20047;-71
2022/07/22 09:28:20;;;;;;;3.28;1.50;;;;;;;21.24;55.17;100323.00;4972840;28;20133;-71
2022/07/22 09:30:53;;;;;;;2.38;1.30;;;;;;;21.23;55.17;100330.19;4972880;28;20053;-71
2022/07/22 09:33:22;;;;;;;4.15;1.63;;;;;;;21.25;55.59;100325.53;4972776;28;20089;-71
2022/07/22 09:35:50;;;;;;;6.40;1.45;;;;;;;21.28;55.39;100321.72;4971540;28;20051;-71
2022/07/22 09:38:25;;;;;;;2.90;1.38;;;;;;;21.31;55.40;100316.09;4972001;28;20145;-70
2022/07/22 09:40:53;;;;;;;3.33;1.35;;;;;;;21.37;55.58;100326.22;4971288;28;20047;-70
2022/07/22 09:43:20;;;;;;;4.28;1.67;;;;;;;21.42;55.55;100328.47;4959737;28;20059;-70
2022/07/22 09:45:50;;;;;;;3.60;1.80;;;;;;;21.47;55.29;100329.72;4951723;29;20054;-70
2022/07/22 09:48:19;;;;;;;3.45;1.48;;;;;;;21.55;54.95;100330.81;4952954;29;20110;-70
2022/07/22 09:50:46;;;;;;;4.47;1.45;;;;;;;21.61;54.83;100322.22;4953120;29;20440;-71
2022/07/22 09:53:14;;;;;;;3.88;1.45;;;;;;;21.68;54.27;100322.47;4953191;28;20051;-70
2022/07/22 09:55:41;;;;;;;6.03;1.70;;;;;;;21.72;53.79;100327.41;4953246;28;20492;-70
2022/07/22 09:58:08;;;;;;;2.90;1.23;;;;;;;21.77;54.23;100329.66;4952896;28;20492;-70
2022/07/22 10:00:37;;;;;;;5.25;1.42;;;;;;;21.81;54.04;100327.53;4951822;29;20086;-70
2022/07/22 10:03:06;;;;;;;5.60;1.90;;;;;;;21.84;53.48;100325.41;4953116;29;20122;-70
2022/07/22 10:05:41;;;;;;;2.85;1.30;;;;;;;21.90;53.82;100329.31;4952910;29;20062;-70
2022/07/22 10:08:09;;;;;;;3.55;1.30;;;;;;;21.99;54.30;100324.91;4952940;29;20142;-70
2022/07/22 10:10:38;;;;;;;4.30;1.70;;;;;;;22.05;53.72;100323.47;4952922;28;20138;-70
2022/07/22 10:13:07;;;;;;;7.03;2.22;;;;;;;22.12;54.16;100324.56;4952858;29;20054;-71
2022/07/22 10:15:36;;;;;;;3.67;1.60;;;;;;;22.17;53.75;100314.25;4952765;28;20047;-71
2022/07/22 10:18:06;;;;;;;3.80;1.35;;;;;;;22.22;52.80;100319.13;4952815;28;20468;-71
2022/07/22 10:20:34;;;;;;;4.07;1.60;;;;;;;22.26;53.00;100332.13;4952859;29;20055;-70
2022/07/22 10:23:02;;;;;;;3.60;1.52;;;;;;;22.30;52.25;100326.44;4952641;28;20058;-70
2022/07/22 10:25:55;;;;;;;2.97;1.60;;;;;;;22.26;52.53;100325.91;4953013;29;20412;-70
2022/07/22 10:28:22;;;;;;;3.72;1.50;;;;;;;22.32;52.75;100327.13;4951484;29;20055;-70
2022/07/22 10:30:48;;;;;;;4.93;1.52;;;;;;;22.31;52.44;100328.13;4952969;29;20051;-70
2022/07/22 10:33:20;;;;;;;8.82;1.88;;;;;;;22.28;52.11;100329.28;4952911;29;20062;-70
2022/07/22 10:36:03;;;;;;;3.67;1.73;;;;;;;22.26;52.51;100318.72;4952517;29;20061;-70
2022/07/22 10:38:31;;;;;;;;;;;;;;;22.27;53.56;100324.88;4951663;29;20130;-70
2022/07/22 10:41:01;;;;;;;1.98;1.17;;;;;;;22.29;52.02;100320.25;4951355;29;19922;-69
2022/07/22 10:43:48;;;;;;;3.67;1.35;;;;;;;22.20;52.38;100323.81;4950900;29;20051;-69
2022/07/22 10:46:15;;;;;;;3.35;1.52;;;;;;;22.21;52.25;100320.16;4952414;28;20055;-71
2022/07/22 10:48:41;;;;;;;4.63;1.20;;;;;;;22.15;52.47;100318.91;4952085;29;20052;-71
2022/07/22 10:51:17;;;;;;;2.63;1.13;;;;;;;22.10;52.68;100323.88;4952051;29;20479;-72
2022/07/22 10:54:02;;;;;;;5.40;1.83;;;;;;;22.02;52.90;100321.09;4953547;28;20055;-70
2022/07/22 10:56:35;;;;;;;2.65;1.40;;;;;;;22.02;52.93;100321.94;4956335;28;20419;-71
2022/07/22 10:59:09;;;;;;;;;;;;;;;22.00;53.97;100322.09;4955243;29;20047;-70
2022/07/22 11:01:39;;;;;;;3.53;1.55;;;;;;;22.04;53.17;100319.94;4955896;28;19923;-70
2022/07/22 11:04:21;;;;;;;8.82;1.83;;;;;;;21.99;52.60;100319.56;4954932;29;20066;-70
2022/07/22 11:06:49;;;;;;;3.95;1.67;;;;;;;22.03;52.31;100312.91;4956092;28;20074;-69
2022/07/22 11:09:18;;;;;;;3.33;1.52;;;;;;;22.05;52.36;100315.44;4955641;28;20063;-71
2022/07/22 11:11:47;;;;;;;4.05;1.63;;;;;;;22.08;51.94;100313.28;4955561;29;20481;-70
2022/07/22 11:14:17;;;;;;;3.03;1.25;;;;;;;22.11;52.48;100307.63;4955660;29;20119;-69
2022/07/22 11:16:46;;;;;;;4.25;1.88;;;;;;;22.18;52.28;100307.88;4954511;29;20047;-70
2022/07/22 11:19:13;;;;;;;3.40;1.60;;;;;;;22.20;52.57;100300.53;4955583;28;20451;-69
2022/07/22 11:21:40;;;;;;;3.75;1.45;;;;;;;22.24;52.70;100301.91;4954422;29;20063;-68
2022/07/22 11:24:11;;;;;;;2.50;1.52;;;;;;;22.30;52.36;100302.28;4954555;29;20051;-71
2022/07/22 11:26:42;;;;;;;4.18;1.67;;;;;;;22.34;52.10;100301.00;4955476;28;20055;-71
2022/07/22 11:29:09;;;;;;;3.53;1.80;;;;;;;22.44;52.62;100298.25;4954146;29;20424;-71
2022/07/22 11:31:38;;;;;;;3.78;1.70;;;;;;;22.53;52.13;100297.34;4955354;28;20055;-70
2022/07/22 11:34:07;;;;;;;3.72;1.80;;;;;;;22.64;52.17;100296.28;4954403;29;20869;-70
2022/07/22 11:36:36;;;;;;;3.30;1.77;;;;;;;22.77;52.18;100290.56;4955398;29;20496;-70